createdAt,value
2023-09-25T00:01:13.978Z,101311.16
2023-09-25T00:03:40.697Z,101306.75
2023-09-25T00:06:07.297Z,101300.63
2023-09-25T00:09:12.739Z,101301.75
2023-09-25T00:11:39.254Z,101304.03
2023-09-25T00:14:06.292Z,101305.59
2023-09-25T00:16:33.023Z,101299.44
2023-09-25T00:18:59.579Z,101315.81
2023-09-25T00:21:28.227Z,101309.22
2023-09-25T00:23:54.758Z,101312.75
2023-09-25T00:26:21.220Z,101311.47
2023-09-25T00:28:50.286Z,101315.59
2023-09-25T00:31:17.290Z,101312.50
2023-09-25T00:33:43.840Z,101309.34
2023-09-25T00:36:10.406Z,101311.41
2023-09-25T00:38:36.860Z,101316.22
2023-09-25T00:41:03.393Z,101316.06
2023-09-25T00:43:32.381Z,101319.94
2023-09-25T00:45:59.926Z,101328.09
2023-09-25T00:48:30.954Z,101324.19
2023-09-25T00:50:59.931Z,101322.59
2023-09-25T00:53:27.793Z,101319.50
2023-09-25T00:55:55.942Z,101327.38
2023-09-25T00:58:25.934Z,101323.78
2023-09-25T01:00:54.193Z,101326.84
2023-09-25T01:03:20.919Z,101335.00
2023-09-25T01:05:48.582Z,101333.09
2023-09-25T01:08:15.114Z,101332.72
2023-09-25T01:10:45.529Z,101331.53
2023-09-25T01:13:12.380Z,101330.56
2023-09-25T01:15:40.150Z,101333.63
2023-09-25T01:18:07.459Z,101324.94
2023-09-25T01:20:33.955Z,101329.50
2023-09-25T01:23:00.715Z,101318.75
2023-09-25T01:25:27.192Z,101324.19
2023-09-25T01:27:56.236Z,101325.25
2023-09-25T01:30:22.914Z,101316.97
2023-09-25T01:32:51.402Z,101320.72
2023-09-25T01:35:24.802Z,101320.09
2023-09-25T01:37:58.915Z,101321.13
2023-09-25T01:40:28.570Z,101311.63
2023-09-25T01:42:55.059Z,101312.91
2023-09-25T01:45:24.504Z,101316.47
2023-09-25T01:47:53.366Z,101306.28
2023-09-25T01:50:23.068Z,101306.19
2023-09-25T01:52:53.904Z,101301.97
2023-09-25T01:55:20.776Z,101298.66
2023-09-25T01:57:47.659Z,101304.00
2023-09-25T02:00:14.946Z,101302.44
2023-09-25T02:02:44.200Z,101298.91
2023-09-25T02:05:16.824Z,101293.59
2023-09-25T02:07:43.772Z,101291.03
2023-09-25T02:10:10.560Z,101293.66
2023-09-25T02:12:39.556Z,101288.41
2023-09-25T02:15:11.826Z,101283.16
2023-09-25T02:17:38.411Z,101279.63
2023-09-25T02:20:32.216Z,101275.34
2023-09-25T02:22:58.734Z,101266.84
2023-09-25T02:25:25.130Z,101266.00
2023-09-25T02:27:54.100Z,101255.78
2023-09-25T02:30:20.603Z,101265.34
2023-09-25T02:32:49.641Z,101258.22
2023-09-25T02:35:16.436Z,101251.81
2023-09-25T02:37:45.904Z,101258.44
2023-09-25T02:40:16.338Z,101249.72
2023-09-25T02:42:44.032Z,101250.44
2023-09-25T02:45:13.717Z,101240.09
2023-09-25T02:47:40.237Z,101240.94
2023-09-25T02:50:10.607Z,101234.50
2023-09-25T02:52:37.548Z,101232.78
2023-09-25T02:55:04.909Z,101234.31
2023-09-25T02:57:31.477Z,101230.94
2023-09-25T03:00:00.291Z,101225.34
2023-09-25T03:02:27.309Z,101224.97
2023-09-25T03:04:56.310Z,101220.97
2023-09-25T03:07:23.009Z,101221.53
2023-09-25T03:09:51.923Z,101213.19
2023-09-25T03:12:18.465Z,101224.25
2023-09-25T03:14:44.874Z,101221.97
2023-09-25T03:17:11.274Z,101210.97
2023-09-25T03:19:39.470Z,101218.25
2023-09-25T03:22:05.986Z,101222.84
2023-09-25T03:24:32.430Z,101218.81
2023-09-25T03:26:59.000Z,101224.25
2023-09-25T03:29:25.437Z,101227.97
2023-09-25T03:31:51.942Z,101219.34
2023-09-25T03:34:18.919Z,101219.81
2023-09-25T03:36:47.677Z,101223.47
2023-09-25T03:39:14.155Z,101225.66
2023-09-25T03:41:40.671Z,101232.22
2023-09-25T03:44:07.097Z,101230.28
2023-09-25T03:46:33.657Z,101237.91
2023-09-25T03:49:06.699Z,101237.59
2023-09-25T03:51:34.248Z,101242.69
2023-09-25T03:54:01.511Z,101237.22
2023-09-25T03:56:46.690Z,101243.50
2023-09-25T03:59:13.349Z,101233.16
2023-09-25T04:01:39.892Z,101240.59
2023-09-25T04:04:08.110Z,101242.53
2023-09-25T04:06:35.307Z,101249.56
2023-09-25T04:09:01.873Z,101248.97
2023-09-25T04:11:28.647Z,101249.13
2023-09-25T04:13:55.711Z,101245.13
2023-09-25T04:16:23.649Z,101252.41
2023-09-25T04:18:50.683Z,101254.25
2023-09-25T04:21:18.678Z,101250.59
2023-09-25T04:23:45.309Z,101249.81
2023-09-25T04:26:13.275Z,101256.91
2023-09-25T04:28:41.508Z,101253.16
2023-09-25T04:31:08.358Z,101253.84
2023-09-25T04:33:40.099Z,101252.16
2023-09-25T04:36:14.714Z,101254.69
2023-09-25T04:38:44.759Z,101264.34
2023-09-25T04:41:11.237Z,101272.28
2023-09-25T04:43:38.232Z,101271.44
2023-09-25T04:46:04.809Z,101265.47
2023-09-25T04:48:31.553Z,101275.13
2023-09-25T04:50:58.570Z,101278.66
2023-09-25T04:53:25.099Z,101281.28
2023-09-25T04:55:51.607Z,101273.28
2023-09-25T04:58:18.175Z,101278.59
2023-09-25T05:00:45.763Z,101276.97
2023-09-25T05:03:17.380Z,101279.69
2023-09-25T05:05:43.864Z,101283.31
2023-09-25T05:08:12.709Z,101287.72
2023-09-25T05:10:39.114Z,101289.47
2023-09-25T05:13:05.617Z,101290.41
2023-09-25T05:15:32.147Z,101284.41
2023-09-25T05:17:58.880Z,101290.50
2023-09-25T05:20:27.598Z,101293.88
2023-09-25T05:22:59.025Z,101293.78
2023-09-25T05:25:25.822Z,101298.13
2023-09-25T05:27:55.300Z,101300.72
2023-09-25T05:30:22.180Z,101303.19
2023-09-25T05:32:50.927Z,101305.72
2023-09-25T05:35:18.576Z,101303.97
2023-09-25T05:37:47.018Z,101305.81
2023-09-25T05:40:15.063Z,101306.75
2023-09-25T05:42:46.559Z,101313.69
2023-09-25T05:45:15.361Z,101304.75
2023-09-25T05:47:42.412Z,101303.84
2023-09-25T05:50:09.361Z,101310.78
2023-09-25T05:52:39.122Z,101307.31
2023-09-25T05:55:10.257Z,101310.59
2023-09-25T05:57:39.443Z,101312.22
2023-09-25T06:00:14.072Z,101308.59
2023-09-25T06:02:41.909Z,101311.06
2023-09-25T06:05:09.779Z,101316.16
2023-09-25T06:07:38.907Z,101316.00
2023-09-25T06:10:09.374Z,101313.97
2023-09-25T06:12:36.955Z,101317.16
2023-09-25T06:15:10.480Z,101316.91
2023-09-25T06:17:41.500Z,101321.81
2023-09-25T06:20:15.510Z,101322.13
2023-09-25T06:22:44.972Z,101325.25
2023-09-25T06:25:19.725Z,101334.09
2023-09-25T06:27:49.847Z,101334.88
2023-09-25T06:30:20.781Z,101337.03
2023-09-25T06:32:47.615Z,101336.59
2023-09-25T06:35:14.361Z,101342.88
2023-09-25T06:37:43.499Z,101331.81
2023-09-25T06:40:14.072Z,101338.84
2023-09-25T06:42:43.337Z,101337.97
2023-09-25T06:45:10.299Z,101338.22
2023-09-25T06:47:39.130Z,101341.06
2023-09-25T06:50:08.335Z,101329.00
2023-09-25T06:52:35.056Z,101325.75
2023-09-25T06:55:01.470Z,101331.22
2023-09-25T06:57:28.107Z,101330.41
2023-09-25T06:59:59.357Z,101327.16
2023-09-25T07:02:26.597Z,101327.72
2023-09-25T07:04:53.267Z,101330.38
2023-09-25T07:07:21.948Z,101328.16
2023-09-25T07:09:48.936Z,101329.25
2023-09-25T07:12:17.079Z,101318.91
2023-09-25T07:14:54.438Z,101328.31
2023-09-25T07:17:23.375Z,101333.56
2023-09-25T07:19:51.766Z,101331.06
2023-09-25T07:22:21.904Z,101334.25
2023-09-25T07:24:49.068Z,101336.84
2023-09-25T07:27:16.357Z,101324.03
2023-09-25T07:29:46.764Z,101322.91
2023-09-25T07:32:15.248Z,101330.31
2023-09-25T07:34:46.467Z,101325.06
2023-09-25T07:37:13.805Z,101314.19
2023-09-25T07:39:41.270Z,101307.38
2023-09-25T07:42:08.452Z,101298.91
2023-09-25T07:44:36.146Z,101311.50
2023-09-25T07:47:08.197Z,101309.69
2023-09-25T07:49:41.382Z,101310.00
2023-09-25T07:52:21.152Z,101309.75
2023-09-25T07:54:52.257Z,101313.09
2023-09-25T07:57:20.976Z,101312.78
2023-09-25T07:59:48.284Z,101322.19
2023-09-25T08:02:19.429Z,101319.44
2023-09-25T08:04:49.649Z,101321.72
2023-09-25T08:07:16.206Z,101306.84
2023-09-25T08:09:45.490Z,101317.00
2023-09-25T08:12:14.074Z,101316.31
2023-09-25T08:14:40.481Z,101313.22
2023-09-25T08:17:09.612Z,101322.41
2023-09-25T08:19:36.095Z,101324.09
2023-09-25T08:22:02.513Z,101320.25
2023-09-25T08:24:29.026Z,101314.53
2023-09-25T08:26:58.222Z,101319.97
2023-09-25T08:29:25.182Z,101320.59
2023-09-25T08:31:52.741Z,101320.13
2023-09-25T08:34:22.703Z,101323.91
2023-09-25T08:36:49.107Z,101322.00
2023-09-25T08:39:15.903Z,101318.66
2023-09-25T08:41:44.119Z,101315.44
2023-09-25T08:44:11.782Z,101312.78
2023-09-25T08:46:38.676Z,101312.91
2023-09-25T08:49:08.114Z,101311.97
2023-09-25T08:51:40.253Z,101321.81
2023-09-25T08:54:08.105Z,101309.66
2023-09-25T08:56:34.803Z,101309.06
2023-09-25T08:59:03.449Z,101300.59
2023-09-25T09:01:30.582Z,101306.84
2023-09-25T09:03:57.382Z,101307.28
2023-09-25T09:06:24.164Z,101296.75
2023-09-25T09:08:52.580Z,101285.91
2023-09-25T09:11:20.709Z,101286.53
2023-09-25T09:13:50.739Z,101264.66
2023-09-25T09:16:25.528Z,101268.16
2023-09-25T09:19:07.510Z,101268.44
2023-09-25T09:21:34.440Z,101265.81
2023-09-25T09:24:01.040Z,101264.59
2023-09-25T09:26:27.506Z,101257.22
2023-09-25T09:28:55.436Z,101244.53
2023-09-25T09:31:22.331Z,101243.94
2023-09-25T09:33:49.317Z,101233.69
2023-09-25T09:36:16.010Z,101238.47
2023-09-25T09:38:43.882Z,101225.16
2023-09-25T09:41:14.364Z,101218.16
2023-09-25T09:43:42.477Z,101221.81
2023-09-25T09:46:13.443Z,101224.56
2023-09-25T09:48:41.500Z,101229.59
2023-09-25T09:51:17.437Z,101216.97
2023-09-25T09:53:44.236Z,101217.81
2023-09-25T09:56:17.658Z,101211.91
2023-09-25T09:58:47.937Z,101203.75
2023-09-25T10:01:18.191Z,101215.13
2023-09-25T10:03:45.028Z,101211.16
2023-09-25T10:06:12.377Z,101207.13
2023-09-25T10:08:38.874Z,101211.72
2023-09-25T10:11:24.321Z,101217.19
2023-09-25T10:13:54.909Z,101215.81
2023-09-25T10:16:21.524Z,101214.88
2023-09-25T10:18:53.184Z,101194.66
2023-09-25T10:21:19.652Z,101198.56
2023-09-25T10:23:53.144Z,101196.88
2023-09-25T10:26:22.922Z,101195.94
2023-09-25T10:29:20.938Z,101199.53
2023-09-25T10:31:48.226Z,101194.25
2023-09-25T10:34:17.678Z,101186.25
2023-09-25T10:36:48.796Z,101184.28
2023-09-25T10:39:19.039Z,101185.25
2023-09-25T10:41:47.164Z,101191.97
2023-09-25T10:44:14.556Z,101180.19
2023-09-25T10:46:41.846Z,101177.06
2023-09-25T10:49:11.044Z,101184.13
2023-09-25T10:51:37.523Z,101189.63
2023-09-25T10:54:06.390Z,101177.34
2023-09-25T10:56:33.709Z,101171.44
2023-09-25T10:59:01.761Z,101162.91
2023-09-25T11:01:30.382Z,101175.34
2023-09-25T11:04:00.649Z,101157.59
2023-09-25T11:06:28.427Z,101165.88
2023-09-25T11:09:15.373Z,101162.44
2023-09-25T11:11:42.405Z,101164.91
2023-09-25T11:14:09.207Z,101156.81
2023-09-25T11:16:35.922Z,101156.34
2023-09-25T11:19:15.440Z,101151.03
2023-09-25T11:21:51.470Z,101154.53
2023-09-25T11:24:18.873Z,101159.59
2023-09-25T11:26:45.641Z,101161.09
2023-09-25T11:29:13.524Z,101153.66
2023-09-25T11:34:10.756Z,101148.19
2023-09-25T11:36:44.979Z,101139.78
2023-09-25T11:39:17.733Z,101136.00
2023-09-25T11:41:45.332Z,101142.28
2023-09-25T11:44:12.037Z,101140.16
2023-09-25T11:46:41.647Z,101138.63
2023-09-25T11:49:08.229Z,101137.31
2023-09-25T11:51:34.849Z,101122.59
2023-09-25T11:54:03.236Z,101129.66
2023-09-25T11:56:35.062Z,101128.66
2023-09-25T11:59:01.981Z,101124.63
2023-09-25T12:01:29.246Z,101120.63
2023-09-25T12:03:56.451Z,101124.81
2023-09-25T12:06:25.603Z,101125.97
2023-09-25T12:08:52.446Z,101119.97
2023-09-25T12:11:22.632Z,101110.56
2023-09-25T12:13:51.831Z,101122.94
2023-09-25T12:16:19.174Z,101118.97
2023-09-25T12:18:46.321Z,101126.63
2023-09-25T12:21:13.022Z,101112.09
2023-09-25T12:23:39.832Z,101114.56
2023-09-25T12:26:06.410Z,101114.44
2023-09-25T12:28:34.901Z,101105.84
2023-09-25T12:31:01.689Z,101116.06
2023-09-25T12:33:31.381Z,101122.19
2023-09-25T12:36:04.193Z,101114.75
2023-09-25T12:38:30.839Z,101121.72
2023-09-25T12:40:57.896Z,101123.31
2023-09-25T12:43:24.576Z,101128.53
2023-09-25T12:45:53.447Z,101111.88
2023-09-25T12:48:25.376Z,101118.94
2023-09-25T12:50:52.333Z,101109.72
2023-09-25T12:53:19.979Z,101096.34
2023-09-25T12:55:46.955Z,101080.81
2023-09-25T12:58:13.528Z,101087.28
2023-09-25T13:00:40.109Z,101093.97
2023-09-25T13:03:07.524Z,101092.41
2023-09-25T13:05:34.606Z,101105.41
2023-09-25T13:08:01.303Z,101089.47
2023-09-25T13:10:29.143Z,101081.00
2023-09-25T13:12:55.707Z,101078.38
2023-09-25T13:15:22.478Z,101081.25
2023-09-25T13:17:51.203Z,101081.41
2023-09-25T13:20:17.889Z,101075.91
2023-09-25T13:22:44.415Z,101076.59
2023-09-25T13:25:11.276Z,101080.44
2023-09-25T13:27:38.266Z,101075.78
2023-09-25T13:30:12.495Z,101081.47
2023-09-25T13:32:39.139Z,101088.16
2023-09-25T13:35:05.877Z,101080.66
2023-09-25T13:37:33.492Z,101082.16
2023-09-25T13:40:00.538Z,101069.09
2023-09-25T13:42:30.624Z,101064.41
2023-09-25T13:44:57.305Z,101068.44
2023-09-25T13:47:23.856Z,101070.09
2023-09-25T13:49:51.185Z,101071.44
2023-09-25T13:52:17.857Z,101073.25
2023-09-25T13:54:45.161Z,101074.75
2023-09-25T13:57:13.803Z,101070.75
2023-09-25T13:59:40.989Z,101068.91
2023-09-25T14:02:07.828Z,101069.75
2023-09-25T14:04:34.313Z,101073.47
2023-09-25T14:07:01.003Z,101071.59
2023-09-25T14:09:27.538Z,101073.28
2023-09-25T14:11:56.669Z,101068.78
2023-09-25T14:14:40.331Z,101076.28
2023-09-25T14:17:07.398Z,101070.25
2023-09-25T14:19:33.817Z,101071.28
2023-09-25T14:22:05.505Z,101074.97
2023-09-25T14:24:37.530Z,101078.78
2023-09-25T14:27:04.075Z,101067.44
2023-09-25T14:29:32.153Z,101075.44
2023-09-25T14:31:59.450Z,101069.25
2023-09-25T14:34:28.222Z,101068.09
2023-09-25T14:36:54.792Z,101064.06
2023-09-25T14:39:25.359Z,101073.78
2023-09-25T14:41:52.285Z,101070.44
2023-09-25T14:44:18.749Z,101061.75
2023-09-25T14:46:45.174Z,101060.75
2023-09-25T14:49:12.818Z,101070.75
2023-09-25T14:51:41.642Z,101064.38
2023-09-25T14:54:13.019Z,101083.09
2023-09-25T14:56:39.431Z,101075.72
2023-09-25T14:59:06.257Z,101066.53
2023-09-25T15:01:32.974Z,101070.75
2023-09-25T15:03:59.484Z,101065.69
2023-09-25T15:06:26.628Z,101076.91
2023-09-25T15:08:54.131Z,101072.91
2023-09-25T15:11:23.152Z,101071.56
2023-09-25T15:13:50.087Z,101069.75
2023-09-25T15:16:16.926Z,101075.63
2023-09-25T15:18:44.277Z,101074.91
2023-09-25T15:21:11.623Z,101074.72
2023-09-25T15:23:41.237Z,101079.41
2023-09-25T15:26:07.626Z,101074.44
2023-09-25T15:28:38.934Z,101071.94
2023-09-25T15:31:05.966Z,101057.38
2023-09-25T15:33:32.483Z,101066.22
2023-09-25T15:35:59.145Z,101064.38
2023-09-25T15:38:25.622Z,101080.41
2023-09-25T15:40:52.071Z,101070.56
2023-09-25T15:43:18.669Z,101067.22
2023-09-25T15:45:45.492Z,101067.38
2023-09-25T15:48:12.063Z,101067.06
2023-09-25T15:50:41.309Z,101069.56
2023-09-25T15:53:07.730Z,101060.88
2023-09-25T15:55:34.243Z,101068.03
2023-09-25T15:58:00.872Z,101061.03
2023-09-25T16:00:28.573Z,101060.03
2023-09-25T16:02:55.072Z,101054.66
2023-09-25T16:05:21.660Z,101061.88
2023-09-25T16:07:50.791Z,101058.84
2023-09-25T16:10:19.610Z,101053.00
2023-09-25T16:12:46.189Z,101048.31
2023-09-25T16:15:14.914Z,101049.31
2023-09-25T16:17:41.905Z,101061.69
2023-09-25T16:20:08.617Z,101053.50
2023-09-25T16:22:35.164Z,101046.97
2023-09-25T16:25:01.797Z,101057.00
2023-09-25T16:27:33.302Z,101054.63
2023-09-25T16:30:00.121Z,101057.66
2023-09-25T16:32:26.857Z,101057.34
2023-09-25T16:34:53.568Z,101060.66
2023-09-25T16:37:22.013Z,101059.16
2023-09-25T16:39:48.426Z,101065.34
2023-09-25T16:42:15.005Z,101065.66
2023-09-25T16:44:41.482Z,101063.66
2023-09-25T16:47:08.045Z,101066.66
2023-09-25T16:49:34.779Z,101070.28
2023-09-25T16:52:01.244Z,101078.16
2023-09-25T16:54:27.731Z,101083.44
2023-09-25T16:56:56.531Z,101083.50
2023-09-25T16:59:22.958Z,101092.94
2023-09-25T17:01:49.477Z,101101.66
2023-09-25T17:04:18.454Z,101097.66
2023-09-25T17:06:44.897Z,101104.81
2023-09-25T17:09:13.704Z,101118.84
2023-09-25T17:11:40.179Z,101112.88
2023-09-25T17:14:06.819Z,101127.03
2023-09-25T17:16:33.497Z,101123.50
2023-09-25T17:19:00.304Z,101128.03
2023-09-25T17:21:27.548Z,101133.41
2023-09-25T17:23:54.327Z,101139.50
2023-09-25T17:26:21.786Z,101145.94
2023-09-25T17:28:55.005Z,101144.84
2023-09-25T17:31:23.268Z,101149.66
2023-09-25T17:33:52.407Z,101155.84
2023-09-25T17:36:21.784Z,101148.69
2023-09-25T17:38:48.442Z,101159.91
2023-09-25T17:41:15.337Z,101168.56
2023-09-25T17:43:42.004Z,101170.81
2023-09-25T17:46:11.378Z,101167.97
2023-09-25T17:48:43.696Z,101173.41
2023-09-25T17:51:10.231Z,101179.56
2023-09-25T17:53:36.655Z,101179.13
2023-09-25T17:56:03.274Z,101179.97
2023-09-25T17:58:31.808Z,101184.72
2023-09-25T18:00:59.984Z,101191.66
2023-09-25T18:03:27.986Z,101199.72
2023-09-25T18:05:57.090Z,101199.28
2023-09-25T18:08:25.982Z,101206.13
2023-09-25T18:10:52.429Z,101208.19
2023-09-25T18:13:22.432Z,101204.00
2023-09-25T18:15:52.859Z,101208.03
2023-09-25T18:18:19.679Z,101205.19
2023-09-25T18:20:46.344Z,101210.72
2023-09-25T18:23:12.891Z,101209.31
2023-09-25T18:25:42.221Z,101212.38
2023-09-25T18:28:08.919Z,101215.53
2023-09-25T18:30:36.535Z,101220.41
2023-09-25T18:33:04.388Z,101220.19
2023-09-25T18:35:32.878Z,101219.75
2023-09-25T18:37:59.382Z,101219.44
2023-09-25T18:40:28.583Z,101218.09
2023-09-25T18:42:56.511Z,101222.97
2023-09-25T18:45:24.123Z,101225.16
2023-09-25T18:47:50.615Z,101217.97
2023-09-25T18:50:17.131Z,101221.72
2023-09-25T18:52:43.538Z,101222.22
2023-09-25T18:55:10.241Z,101238.03
2023-09-25T18:57:36.796Z,101226.00
2023-09-25T19:00:03.981Z,101232.75
2023-09-25T19:02:30.952Z,101232.31
2023-09-25T19:04:57.433Z,101234.50
2023-09-25T19:07:23.983Z,101227.75
2023-09-25T19:09:53.655Z,101231.34
2023-09-25T19:12:20.295Z,101227.38
2023-09-25T19:14:47.437Z,101230.28
2023-09-25T19:17:16.000Z,101229.78
2023-09-25T19:19:42.492Z,101229.44
2023-09-25T19:22:11.186Z,101231.63
2023-09-25T19:24:37.651Z,101229.94
2023-09-25T19:27:05.515Z,101238.38
2023-09-25T19:29:32.170Z,101234.28
2023-09-25T19:31:58.768Z,101228.38
2023-09-25T19:34:25.436Z,101234.78
2023-09-25T19:36:51.994Z,101232.97
2023-09-25T19:39:20.760Z,101235.00
2023-09-25T19:41:47.153Z,101238.63
2023-09-25T19:44:13.999Z,101239.81
2023-09-25T19:46:40.713Z,101239.94
2023-09-25T19:49:07.489Z,101244.75
2023-09-25T19:51:36.439Z,101246.28
2023-09-25T19:54:03.656Z,101246.16
2023-09-25T19:56:30.154Z,101243.16
2023-09-25T19:58:56.558Z,101246.88
2023-09-25T20:01:23.164Z,101243.66
2023-09-25T20:03:49.949Z,101238.34
2023-09-25T20:06:16.702Z,101237.97
2023-09-25T20:08:43.104Z,101241.09
2023-09-25T20:11:09.562Z,101243.84
2023-09-25T20:13:37.456Z,101244.09
2023-09-25T20:16:06.313Z,101246.09
2023-09-25T20:18:33.244Z,101243.09
2023-09-25T20:21:02.197Z,101244.06
2023-09-25T20:23:28.675Z,101235.59
2023-09-25T20:25:55.615Z,101232.22
2023-09-25T20:28:24.338Z,101238.19
2023-09-25T20:30:53.358Z,101225.94
2023-09-25T20:33:19.901Z,101229.75
2023-09-25T20:35:49.477Z,101233.47
2023-09-25T20:38:15.996Z,101236.13
2023-09-25T20:40:42.433Z,101233.59
2023-09-25T20:43:08.980Z,101231.91
2023-09-25T20:45:38.237Z,101238.16
2023-09-25T20:48:05.241Z,101234.16
2023-09-25T20:50:31.896Z,101238.75
2023-09-25T20:53:04.082Z,101234.72
2023-09-25T20:55:31.378Z,101227.97
2023-09-25T20:58:01.190Z,101226.53
2023-09-25T21:00:28.773Z,101220.22
2023-09-25T21:02:55.810Z,101221.06
2023-09-25T21:05:22.312Z,101213.47
2023-09-25T21:07:54.547Z,101211.28
2023-09-25T21:10:21.643Z,101212.47
2023-09-25T21:12:50.497Z,101200.19
2023-09-25T21:15:17.210Z,101205.00
2023-09-25T21:17:43.831Z,101202.56
2023-09-25T21:20:11.677Z,101203.72
2023-09-25T21:22:39.376Z,101203.00
2023-09-25T21:25:12.107Z,101197.00
2023-09-25T21:27:38.762Z,101201.03
2023-09-25T21:30:06.288Z,101203.25
2023-09-25T21:32:32.802Z,101202.53
2023-09-25T21:35:01.298Z,101200.34
2023-09-25T21:37:27.786Z,101194.41
2023-09-25T21:39:54.371Z,101196.31
2023-09-25T21:42:21.800Z,101196.78
2023-09-25T21:44:48.357Z,101199.09
2023-09-25T21:47:15.269Z,101197.63
2023-09-25T21:49:41.895Z,101195.56
2023-09-25T21:52:08.314Z,101200.00
2023-09-25T21:54:34.945Z,101202.09
2023-09-25T21:57:01.513Z,101206.09
2023-09-25T21:59:28.628Z,101209.13
2023-09-25T22:01:55.157Z,101199.75
2023-09-25T22:04:23.848Z,101205.03
2023-09-25T22:06:50.638Z,101197.75
2023-09-25T22:09:17.350Z,101199.56
2023-09-25T22:11:43.907Z,101191.09
2023-09-25T22:14:10.386Z,101191.19
2023-09-25T22:16:36.964Z,101194.56
2023-09-25T22:19:03.790Z,101194.78
2023-09-25T22:21:30.395Z,101198.59
2023-09-25T22:23:56.882Z,101192.59
2023-09-25T22:26:23.365Z,101191.06
2023-09-25T22:28:49.778Z,101189.41
2023-09-25T22:31:18.455Z,101188.56
2023-09-25T22:33:46.154Z,101178.53
2023-09-25T22:36:12.785Z,101185.72
2023-09-25T22:38:39.628Z,101178.84
2023-09-25T22:41:07.026Z,101186.00
2023-09-25T22:43:38.945Z,101184.44
2023-09-25T22:46:07.573Z,101178.41
2023-09-25T22:48:34.433Z,101176.94
2023-09-25T22:51:01.415Z,101184.31
2023-09-25T22:53:28.110Z,101185.28
2023-09-25T22:55:54.543Z,101180.06
2023-09-25T22:58:23.352Z,101188.09
2023-09-25T23:00:53.290Z,101188.09
2023-09-25T23:03:20.280Z,101192.63
2023-09-25T23:05:47.681Z,101186.63
2023-09-25T23:08:16.589Z,101183.88
2023-09-25T23:10:45.631Z,101183.97
2023-09-25T23:13:12.182Z,101181.34
2023-09-25T23:15:38.681Z,101177.03
2023-09-25T23:18:05.470Z,101177.97
2023-09-25T23:20:32.123Z,101171.84
2023-09-25T23:22:58.588Z,101171.00
2023-09-25T23:25:27.332Z,101164.91
2023-09-25T23:27:56.650Z,101177.34
2023-09-25T23:30:24.688Z,101169.53
2023-09-25T23:32:52.289Z,101173.13
2023-09-25T23:35:19.513Z,101166.16
2023-09-25T23:37:50.444Z,101177.53
2023-09-25T23:40:22.745Z,101171.44
2023-09-25T23:42:50.249Z,101170.56
2023-09-25T23:45:18.220Z,101173.28
2023-09-25T23:47:49.389Z,101183.94
2023-09-25T23:50:16.758Z,101178.78
2023-09-25T23:52:45.742Z,101167.91
2023-09-25T23:55:12.920Z,101166.44
2023-09-25T23:57:40.623Z,101173.50
